createdAt,value
2017-07-31T00:00:02.676Z,0
2017-07-31T00:05:02.582Z,0
2017-07-31T00:10:03.127Z,0
2017-07-31T00:15:02.523Z,0
2017-07-31T00:20:02.946Z,0
2017-07-31T00:25:03.242Z,0
2017-07-31T00:30:02.556Z,0
2017-07-31T00:35:03.041Z,0
2017-07-31T00:40:02.358Z,0
2017-07-31T00:50:03.209Z,0
2017-07-31T00:55:02.599Z,0
2017-07-31T01:00:03.045Z,0
2017-07-31T01:05:02.390Z,0
2017-07-31T01:10:02.920Z,0
2017-07-31T01:15:03.264Z,0
2017-07-31T01:20:02.687Z,0
2017-07-31T01:25:03.027Z,0
2017-07-31T01:30:03.301Z,0
2017-07-31T01:35:02.740Z,0
2017-07-31T01:40:03.090Z,0
2017-07-31T01:45:02.351Z,0
2017-07-31T01:50:02.650Z,0
2017-07-31T01:55:03.075Z,0
2017-07-31T02:00:02.495Z,0
2017-07-31T02:05:02.812Z,0
2017-07-31T02:10:03.226Z,0
2017-07-31T02:15:02.588Z,0
2017-07-31T02:20:03.009Z,0
2017-07-31T02:25:02.432Z,0
2017-07-31T02:30:02.812Z,0
2017-07-31T02:35:03.055Z,0
2017-07-31T02:40:02.430Z,0
2017-07-31T02:45:02.935Z,0
2017-07-31T02:50:02.380Z,0
2017-07-31T02:55:02.674Z,0
2017-07-31T03:00:03.099Z,0
2017-07-31T03:05:02.390Z,0
2017-07-31T03:10:02.747Z,0
2017-07-31T03:15:03.191Z,0
2017-07-31T03:20:02.587Z,2
2017-07-31T03:25:02.854Z,4
2017-07-31T03:30:03.256Z,9
2017-07-31T03:35:02.560Z,14
2017-07-31T03:40:02.995Z,17
2017-07-31T03:45:03.289Z,37
2017-07-31T03:50:02.584Z,50
2017-07-31T03:55:02.885Z,68
2017-07-31T04:00:02.357Z,125
2017-07-31T04:05:02.714Z,151
2017-07-31T04:10:03.201Z,269
2017-07-31T04:15:02.538Z,317
2017-07-31T04:20:03.010Z,383
2017-07-31T04:25:02.500Z,471
2017-07-31T04:30:03.195Z,570
2017-07-31T04:35:02.616Z,690
2017-07-31T04:40:02.996Z,922
2017-07-31T04:45:02.417Z,1000
2017-07-31T04:50:02.677Z,1000
2017-07-31T04:55:02.965Z,2000
2017-07-31T05:00:03.252Z,2000
2017-07-31T05:05:02.480Z,2000
2017-07-31T05:10:02.938Z,1000
2017-07-31T05:15:02.360Z,2000
2017-07-31T05:20:02.658Z,2000
2017-07-31T05:25:02.975Z,2000
2017-07-31T05:30:03.266Z,1000
2017-07-31T05:35:02.677Z,1000
2017-07-31T05:40:03.052Z,3000
2017-07-31T05:45:02.343Z,3000
2017-07-31T05:50:02.762Z,3000
2017-07-31T05:55:03.155Z,3000
2017-07-31T06:00:02.440Z,4000
2017-07-31T06:05:02.861Z,4000
2017-07-31T06:10:03.236Z,4000
2017-07-31T06:15:02.648Z,5000
2017-07-31T06:20:02.962Z,4000
2017-07-31T06:25:03.279Z,3000
2017-07-31T06:30:02.470Z,3000
2017-07-31T06:35:02.844Z,2000
2017-07-31T06:40:03.212Z,3000
2017-07-31T06:45:02.470Z,3000
2017-07-31T06:50:02.833Z,4000
2017-07-31T06:55:03.276Z,3000
2017-07-31T07:00:02.571Z,3000
2017-07-31T07:05:02.792Z,3000
2017-07-31T07:10:03.244Z,3000
2017-07-31T07:15:02.617Z,3000
2017-07-31T07:20:03.109Z,3000
2017-07-31T07:25:02.440Z,3000
2017-07-31T07:30:02.866Z,3000
2017-07-31T07:35:03.195Z,4000
2017-07-31T07:40:02.635Z,4000
2017-07-31T07:45:03.113Z,4000
2017-07-31T07:50:02.568Z,5000
2017-07-31T07:55:03.013Z,5000
2017-07-31T08:00:03.295Z,5000
2017-07-31T08:05:02.667Z,5000
2017-07-31T08:10:02.999Z,6000
2017-07-31T08:15:03.277Z,8000
2017-07-31T08:20:02.655Z,10000
2017-07-31T08:25:03.100Z,7000
2017-07-31T08:30:02.758Z,18000
2017-07-31T08:35:03.113Z,25000
2017-07-31T08:40:02.506Z,10000
2017-07-31T08:45:02.782Z,31000
2017-07-31T08:50:03.080Z,54000
2017-07-31T08:55:02.495Z,47000
2017-07-31T09:00:02.908Z,50000
2017-07-31T09:05:03.252Z,53000
2017-07-31T09:10:02.662Z,30000
2017-07-31T09:15:03.032Z,45000
2017-07-31T09:20:02.485Z,15000
2017-07-31T09:25:02.814Z,48000
2017-07-31T09:30:03.209Z,57000
2017-07-31T09:35:02.514Z,25000
2017-07-31T09:40:03.027Z,52000
2017-07-31T09:45:03.301Z,31000
2017-07-31T09:50:02.544Z,32000
2017-07-31T09:55:02.793Z,57000
2017-07-31T10:00:03.096Z,40000
2017-07-31T10:05:03.339Z,33000
2017-07-31T10:10:02.825Z,23000
2017-07-31T10:15:03.124Z,11000
2017-07-31T10:20:02.428Z,11000
2017-07-31T10:25:02.684Z,41000
2017-07-31T10:30:02.951Z,19000
2017-07-31T10:35:02.406Z,22000
2017-07-31T10:40:02.969Z,19000
2017-07-31T10:45:02.415Z,15000
2017-07-31T10:50:02.686Z,33000
2017-07-31T10:55:03.098Z,18000
2017-07-31T11:00:02.546Z,26000
2017-07-31T11:05:02.953Z,33000
2017-07-31T11:10:03.228Z,28000
2017-07-31T11:15:02.515Z,51000
2017-07-31T11:20:02.824Z,42000
2017-07-31T11:25:03.220Z,38000
2017-07-31T11:30:02.532Z,11000
2017-07-31T11:35:02.987Z,33000
2017-07-31T11:40:02.429Z,22000
2017-07-31T11:45:02.771Z,25000
2017-07-31T11:50:03.192Z,33000
2017-07-31T11:55:02.386Z,15000
2017-07-31T12:00:02.598Z,33000
2017-07-31T12:05:02.888Z,13000
2017-07-31T12:10:02.364Z,35000
2017-07-31T12:15:02.807Z,45000
2017-07-31T12:20:03.146Z,41000
2017-07-31T12:25:02.442Z,53000
2017-07-31T12:30:02.884Z,55000
2017-07-31T12:35:03.141Z,52000
2017-07-31T12:40:02.376Z,39000
2017-07-31T12:45:02.893Z,54000
2017-07-31T12:50:03.223Z,52000
2017-07-31T12:55:02.597Z,44000
2017-07-31T13:00:02.886Z,41000
2017-07-31T13:05:02.374Z,36000
2017-07-31T13:10:02.824Z,15000
2017-07-31T13:15:03.052Z,37000
2017-07-31T13:20:02.509Z,33000
2017-07-31T13:25:02.795Z,31000
2017-07-31T13:30:03.039Z,33000
2017-07-31T13:35:02.380Z,13000
2017-07-31T13:40:03.154Z,39000
2017-07-31T13:45:02.534Z,14000
2017-07-31T13:50:02.899Z,25000
2017-07-31T13:55:02.366Z,11000
2017-07-31T14:00:02.713Z,5000
2017-07-31T14:05:03.142Z,29000
2017-07-31T14:10:02.662Z,29000
2017-07-31T14:15:02.915Z,14000
2017-07-31T14:20:03.276Z,30000
2017-07-31T14:25:02.684Z,27000
2017-07-31T14:30:03.083Z,27000
2017-07-31T14:35:02.553Z,17000
2017-07-31T14:40:02.823Z,19000
2017-07-31T14:45:03.102Z,27000
2017-07-31T14:50:02.554Z,10000
2017-07-31T14:55:03.002Z,30000
2017-07-31T15:00:02.427Z,23000
2017-07-31T15:05:03.015Z,28000
2017-07-31T15:10:02.358Z,8000
2017-07-31T15:15:02.668Z,4000
2017-07-31T15:20:03.131Z,6000
2017-07-31T15:25:02.531Z,5000
2017-07-31T15:30:02.797Z,16000
2017-07-31T15:35:03.046Z,22000
2017-07-31T15:40:02.351Z,6000
2017-07-31T15:45:02.685Z,18000
2017-07-31T15:50:03.144Z,24000
2017-07-31T15:55:02.431Z,20000
2017-07-31T16:00:02.743Z,21000
2017-07-31T16:05:03.050Z,13000
2017-07-31T16:10:02.369Z,8000
2017-07-31T16:15:02.778Z,3000
2017-07-31T16:20:03.082Z,5000
2017-07-31T16:25:02.462Z,5000
2017-07-31T16:30:02.796Z,4000
2017-07-31T16:35:03.091Z,5000
2017-07-31T16:40:02.570Z,5000
2017-07-31T16:45:02.951Z,4000
2017-07-31T16:50:02.334Z,4000
2017-07-31T16:55:02.746Z,5000
2017-07-31T17:00:03.368Z,5000
2017-07-31T17:05:02.884Z,5000
2017-07-31T17:10:03.219Z,4000
2017-07-31T17:15:02.434Z,4000
2017-07-31T17:20:02.795Z,4000
2017-07-31T17:25:03.149Z,3000
2017-07-31T17:30:02.386Z,3000
2017-07-31T17:35:02.616Z,3000
2017-07-31T17:40:03.086Z,3000
2017-07-31T17:45:02.593Z,2000
2017-07-31T17:50:02.937Z,3000
2017-07-31T17:55:03.161Z,2000
2017-07-31T18:00:02.570Z,1000
2017-07-31T18:05:02.840Z,2000
2017-07-31T18:10:03.177Z,2000
2017-07-31T18:15:02.630Z,2000
2017-07-31T18:20:03.099Z,1000
2017-07-31T18:25:02.400Z,1000
2017-07-31T18:30:02.681Z,1000
2017-07-31T18:35:03.141Z,967
2017-07-31T18:40:02.603Z,830
2017-07-31T18:45:02.843Z,717
2017-07-31T18:50:03.231Z,625
2017-07-31T18:55:02.629Z,625
2017-07-31T19:00:02.835Z,552
2017-07-31T19:05:03.198Z,442
2017-07-31T19:10:02.553Z,339
2017-07-31T19:15:02.784Z,100
2017-07-31T19:20:03.057Z,90
2017-07-31T19:25:02.466Z,68
2017-07-31T19:30:02.892Z,58
2017-07-31T19:35:02.360Z,44
2017-07-31T19:40:02.719Z,23
2017-07-31T19:45:03.023Z,14
2017-07-31T19:50:03.289Z,8
2017-07-31T19:55:02.691Z,4
2017-07-31T20:00:03.095Z,2
2017-07-31T20:05:02.516Z,1
2017-07-31T20:10:02.848Z,0
2017-07-31T20:15:03.251Z,0
2017-07-31T20:20:02.503Z,0
2017-07-31T20:25:02.705Z,0
2017-07-31T20:30:03.099Z,0
2017-07-31T20:35:02.538Z,0
2017-07-31T20:40:02.856Z,0
2017-07-31T20:45:03.153Z,0
2017-07-31T20:50:02.547Z,0
2017-07-31T20:55:03.050Z,0
2017-07-31T21:00:02.298Z,0
2017-07-31T21:05:02.597Z,0
2017-07-31T21:10:02.902Z,0
2017-07-31T21:15:03.158Z,0
2017-07-31T21:20:02.343Z,0
2017-07-31T21:25:02.586Z,0
2017-07-31T21:30:03.065Z,0
2017-07-31T21:35:02.447Z,0
2017-07-31T21:40:02.865Z,0
2017-07-31T21:45:02.333Z,0
2017-07-31T21:50:02.639Z,0
2017-07-31T21:55:02.980Z,0
2017-07-31T22:00:03.565Z,0
2017-07-31T22:05:02.932Z,0
2017-07-31T22:10:02.383Z,0
2017-07-31T22:15:02.767Z,0
2017-07-31T22:20:03.174Z,0
2017-07-31T22:25:02.630Z,0
2017-07-31T22:30:02.956Z,0
2017-07-31T22:35:03.177Z,0
2017-07-31T22:40:02.659Z,0
2017-07-31T22:45:03.151Z,0
2017-07-31T22:50:02.497Z,0
2017-07-31T22:55:02.881Z,0
2017-07-31T23:00:03.489Z,0
2017-07-31T23:05:03.223Z,0
2017-07-31T23:10:02.635Z,0
2017-07-31T23:15:02.913Z,0
2017-07-31T23:20:03.159Z,0
2017-07-31T23:25:02.462Z,0
2017-07-31T23:30:02.850Z,0
2017-07-31T23:35:03.194Z,0
2017-07-31T23:40:02.625Z,0
2017-07-31T23:45:02.950Z,0
2017-07-31T23:50:02.308Z,0
2017-07-31T23:55:02.700Z,0
